Time,TemperatureF,DewpointF,PressureIn,WindDirection,WindDirectionDegrees,WindSpeedMPH,WindSpeedGustMPH,Humidity,HourlyPrecipIn,Conditions,Clouds,dailyrainin,SolarRadiationWatts/m^2,SoftwareType,DateUTC
2013-03-25 00:02:00,50.1,39.6,30.03,NNW,328,4.0,4.0,67,0.00,,,0.00,0,Wunderground v.1.15,2013-03-24 22:02:00,
2013-03-25 00:12:00,48.9,39.5,30.03,NNW,329,3.0,3.0,70,0.00,,,0.00,0,Wunderground v.1.15,2013-03-24 22:12:00,
2013-03-25 00:22:00,48.2,39.2,30.03,NNW,336,4.0,4.0,71,0.00,,,0.00,0,Wunderground v.1.15,2013-03-24 22:22:00,
2013-03-25 00:42:00,46.4,38.9,30.02,NNW,337,8.0,10.0,75,0.00,,,0.00,0,Wunderground v.1.15,2013-03-24 22:42:00,
2013-03-25 00:52:00,45.7,38.9,30.02,NNW,346,8.0,11.0,77,0.00,,,0.00,0,Wunderground v.1.15,2013-03-24 22:52:00,
2013-03-25 01:02:00,45.3,39.2,30.02,NNW,344,8.0,8.0,79,0.00,,,0.00,0,Wunderground v.1.15,2013-03-24 23:02:00,
2013-03-25 01:12:00,45.1,39.0,30.03,NNW,335,10.0,10.0,79,0.00,,,0.00,0,Wunderground v.1.15,2013-03-24 23:12:00,
2013-03-25 01:22:00,44.9,39.4,30.03,North,350,12.0,12.0,81,0.00,,,0.00,0,Wunderground v.1.15,2013-03-24 23:22:00,
2013-03-25 01:32:00,44.8,39.6,30.03,NNW,329,8.0,8.0,82,0.00,,,0.00,0,Wunderground v.1.15,2013-03-24 23:32:00,
2013-03-25 01:42:00,44.4,39.9,30.03,NNE,15,7.0,11.0,84,0.00,,,0.00,0,Wunderground v.1.15,2013-03-24 23:42:00,
2013-03-25 01:52:00,44.1,39.9,30.03,North,360,7.0,14.0,85,0.00,,,0.00,0,Wunderground v.1.15,2013-03-24 23:52:00,
2013-03-25 02:02:00,43.6,39.7,30.03,North,5,9.0,13.0,86,0.00,,,0.00,0,Wunderground v.1.15,2013-03-25 00:02:00,
2013-03-25 02:12:00,43.2,39.9,30.03,North,5,10.0,12.0,88,0.00,,,0.00,0,Wunderground v.1.15,2013-03-25 00:12:00,
2013-03-25 02:22:00,43.2,40.2,30.03,NNW,343,11.0,11.0,89,0.00,,,0.00,0,Wunderground v.1.15,2013-03-25 00:22:00,
2013-03-25 02:32:00,43.4,40.7,30.04,NNW,346,10.0,10.0,90,0.00,,,0.00,0,Wunderground v.1.15,2013-03-25 00:32:00,
2013-03-25 02:42:00,43.6,40.6,30.03,NE,34,7.0,7.0,89,0.00,,,0.00,0,Wunderground v.1.15,2013-03-25 00:42:00,
2013-03-25 03:02:00,43.6,40.6,30.04,NNE,20,10.0,10.0,89,0.00,,,0.00,0,Wunderground v.1.15,2013-03-25 01:02:00,
2013-03-25 03:12:00,43.8,40.8,30.04,NNE,32,8.0,8.0,89,0.00,,,0.00,0,Wunderground v.1.15,2013-03-25 01:12:00,
2013-03-25 03:22:00,44.0,41.0,30.03,NNE,32,7.0,7.0,89,0.00,,,0.00,0,Wunderground v.1.15,2013-03-25 01:22:00,
2013-03-25 03:32:00,44.0,40.7,30.03,NNE,15,9.0,9.0,88,0.00,,,0.00,0,Wunderground v.1.15,2013-03-25 01:32:00,
2013-03-25 03:42:00,44.0,40.7,30.03,NNE,21,10.0,19.0,88,0.00,,,0.00,0,Wunderground v.1.15,2013-03-25 01:42:00,
2013-03-25 03:52:00,43.9,40.3,30.04,North,11,12.0,12.0,87,0.00,,,0.00,0,Wunderground v.1.15,2013-03-25 01:52:00,
2013-03-25 04:02:00,43.9,40.3,30.04,NNE,26,13.0,16.0,87,0.00,,,0.00,0,Wunderground v.1.15,2013-03-25 02:02:00,
2013-03-25 04:12:00,44.0,40.4,30.03,North,5,10.0,11.0,87,0.00,,,0.00,0,Wunderground v.1.15,2013-03-25 02:12:00,
2013-03-25 04:22:00,44.0,40.4,30.03,NNE,28,11.0,12.0,87,0.00,,,0.00,0,Wunderground v.1.15,2013-03-25 02:22:00,
2013-03-25 04:32:00,44.0,40.4,30.02,NNW,341,10.0,10.0,87,0.00,,,0.00,0,Wunderground v.1.15,2013-03-25 02:32:00,
2013-03-25 04:42:00,44.0,40.7,30.02,North,355,9.0,9.0,88,0.00,,,0.00,0,Wunderground v.1.15,2013-03-25 02:42:00,
2013-03-25 04:52:00,43.9,40.6,30.01,NNE,32,8.0,8.0,88,0.00,,,0.00,0,Wunderground v.1.15,2013-03-25 02:52:00,
2013-03-25 05:02:00,43.9,40.6,30.02,NNE,19,8.0,11.0,88,0.00,,,0.00,0,Wunderground v.1.15,2013-03-25 03:02:00,
2013-03-25 05:12:00,44.0,40.7,30.02,NNE,14,10.0,10.0,88,0.00,,,0.00,0,Wunderground v.1.15,2013-03-25 03:12:00,
2013-03-25 05:22:00,43.9,40.6,30.02,NE,55,10.0,10.0,88,0.00,,,0.00,0,Wunderground v.1.15,2013-03-25 03:22:00,
2013-03-25 05:32:00,43.8,40.5,30.02,NNE,20,11.0,11.0,88,0.00,,,0.00,0,Wunderground v.1.15,2013-03-25 03:32:00,
2013-03-25 05:42:00,43.7,40.4,30.02,NNE,19,8.0,14.0,88,0.00,,,0.00,0,Wunderground v.1.15,2013-03-25 03:42:00,
2013-03-25 05:52:00,43.7,40.4,30.03,NNE,19,10.0,11.0,88,0.00,,,0.00,0,Wunderground v.1.15,2013-03-25 03:52:00,
2013-03-25 06:02:00,43.7,40.4,30.03,NNE,17,11.0,11.0,88,0.00,,,0.00,11,Wunderground v.1.15,2013-03-25 04:02:00,
2013-03-25 06:12:00,43.8,40.5,30.02,NNE,17,9.0,9.0,88,0.00,,,0.00,30,Wunderground v.1.15,2013-03-25 04:12:00,
2013-03-25 06:22:00,44.0,41.0,30.02,North,5,7.0,9.0,89,0.00,,,0.00,49,Wunderground v.1.15,2013-03-25 04:22:00,
2013-03-25 06:32:00,44.1,40.8,30.02,North,360,8.0,8.0,88,0.00,,,0.00,44,Wunderground v.1.15,2013-03-25 04:32:00,
2013-03-25 06:42:00,44.5,41.5,30.02,North,9,10.0,10.0,89,0.00,,,0.00,40,Wunderground v.1.15,2013-03-25 04:42:00,
2013-03-25 06:52:00,44.2,40.6,30.03,North,360,10.0,10.0,87,0.00,,,0.00,58,Wunderground v.1.15,2013-03-25 04:52:00,
2013-03-25 07:02:00,44.4,40.8,30.03,North,11,10.0,11.0,87,0.00,,,0.00,102,Wunderground v.1.15,2013-03-25 05:02:00,
2013-03-25 07:12:00,44.5,40.6,30.03,NNE,17,10.0,10.0,86,0.00,,,0.00,169,Wunderground v.1.15,2013-03-25 05:12:00,
2013-03-25 07:22:00,44.8,40.6,30.03,NNE,19,11.0,16.0,85,0.00,,,0.00,148,Wunderground v.1.15,2013-03-25 05:22:00,
2013-03-25 07:32:00,44.8,40.9,30.03,NNE,15,12.0,12.0,86,0.00,,,0.00,77,Wunderground v.1.15,2013-03-25 05:32:00,
2013-03-25 07:42:00,44.6,40.7,30.02,North,5,12.0,12.0,86,0.00,,,0.00,53,Wunderground v.1.15,2013-03-25 05:42:00,
2013-03-25 07:52:00,44.8,40.9,30.03,NNE,17,11.0,13.0,86,0.00,,,0.00,265,Wunderground v.1.15,2013-03-25 05:52:00,
2013-03-25 08:02:00,45.7,41.1,30.03,NNE,24,12.0,13.0,84,0.00,,,0.00,311,Wunderground v.1.15,2013-03-25 06:02:00,
2013-03-25 08:12:00,46.6,41.4,30.03,NNE,24,11.0,11.0,82,0.00,,,0.00,297,Wunderground v.1.15,2013-03-25 06:12:00,
2013-03-25 08:22:00,46.9,41.1,30.02,NNE,22,12.0,16.0,80,0.00,,,0.00,343,Wunderground v.1.15,2013-03-25 06:22:00,
2013-03-25 08:32:00,46.8,41.6,30.02,NNE,16,15.0,15.0,82,0.00,,,0.00,387,Wunderground v.1.15,2013-03-25 06:32:00,
2013-03-25 08:42:00,46.9,41.4,30.02,NNE,24,15.0,15.0,81,0.00,,,0.00,373,Wunderground v.1.15,2013-03-25 06:42:00,
2013-03-25 09:02:00,47.4,41.2,30.02,NE,34,16.0,16.0,79,0.00,,,0.00,276,Wunderground v.1.15,2013-03-25 07:02:00,
2013-03-25 09:12:00,47.8,41.6,30.02,NE,42,13.0,13.0,79,0.00,,,0.00,454,Wunderground v.1.15,2013-03-25 07:12:00,
2013-03-25 09:22:00,47.6,41.1,30.02,NNE,17,15.0,18.0,78,0.00,,,0.00,513,Wunderground v.1.15,2013-03-25 07:22:00,
2013-03-25 09:32:00,48.8,41.9,30.01,NE,35,13.0,13.0,77,0.00,,,0.00,585,Wunderground v.1.15,2013-03-25 07:32:00,
2013-03-25 09:42:00,48.6,41.4,30.01,NNE,31,12.0,16.0,76,0.00,,,0.00,394,Wunderground v.1.15,2013-03-25 07:42:00,
2013-03-25 09:52:00,48.5,41.3,30.01,NE,43,12.0,12.0,76,0.00,,,0.00,526,Wunderground v.1.15,2013-03-25 07:52:00,
2013-03-25 10:02:00,49.2,41.3,30.01,NNE,24,11.0,16.0,74,0.00,,,0.00,575,Wunderground v.1.15,2013-03-25 08:02:00,
2013-03-25 10:12:00,49.6,41.7,30.01,NNE,26,11.0,11.0,74,0.00,,,0.00,566,Wunderground v.1.15,2013-03-25 08:12:00,
2013-03-25 10:22:00,49.6,42.3,30.01,NNE,28,14.0,14.0,76,0.00,,,0.00,541,Wunderground v.1.15,2013-03-25 08:22:00,
2013-03-25 10:32:00,49.3,41.4,30.00,North,5,14.0,22.0,74,0.00,,,0.00,559,Wunderground v.1.15,2013-03-25 08:32:00,
2013-03-25 10:52:00,49.8,41.5,30.00,NNE,24,14.0,14.0,73,0.00,,,0.00,622,Wunderground v.1.15,2013-03-25 08:52:00,
2013-03-25 11:02:00,49.5,41.9,29.99,NNE,31,15.0,17.0,75,0.00,,,0.00,654,Wunderground v.1.15,2013-03-25 09:02:00,
2013-03-25 11:12:00,50.5,41.8,30.00,NE,42,14.0,14.0,72,0.00,,,0.00,652,Wunderground v.1.15,2013-03-25 09:12:00,
2013-03-25 11:22:00,50.4,41.7,29.99,NNE,15,15.0,19.0,72,0.00,,,0.00,636,Wunderground v.1.15,2013-03-25 09:22:00,
2013-03-25 11:32:00,50.3,41.6,30.00,NNE,24,15.0,17.0,72,0.00,,,0.00,701,Wunderground v.1.15,2013-03-25 09:32:00,
2013-03-25 11:52:00,51.3,41.8,30.00,North,5,12.0,13.0,70,0.00,,,0.00,791,Wunderground v.1.15,2013-03-25 09:52:00,
2013-03-25 12:02:00,51.2,41.7,29.99,NE,34,13.0,16.0,70,0.00,,,0.00,443,Wunderground v.1.15,2013-03-25 10:02:00,
2013-03-25 12:12:00,50.7,41.6,29.99,NNE,17,15.0,15.0,71,0.00,,,0.00,455,Wunderground v.1.15,2013-03-25 10:12:00,
2013-03-25 12:32:00,50.7,41.3,29.98,NNE,23,16.0,17.0,70,0.00,,,0.00,418,Wunderground v.1.15,2013-03-25 10:32:00,
2013-03-25 12:42:00,50.4,42.4,29.97,North,10,16.0,20.0,74,0.00,,,0.00,367,Wunderground v.1.15,2013-03-25 10:42:00,
2013-03-25 12:52:00,50.2,41.5,29.96,North,360,17.0,19.0,72,0.00,,,0.00,438,Wunderground v.1.15,2013-03-25 10:52:00,
2013-03-25 13:02:00,49.8,41.5,29.94,NNW,344,17.0,20.0,73,0.00,,,0.00,373,Wunderground v.1.15,2013-03-25 11:02:00,
2013-03-25 13:12:00,49.3,41.4,29.94,NNW,345,16.0,16.0,74,0.00,,,0.00,316,Wunderground v.1.15,2013-03-25 11:12:00,
2013-03-25 13:22:00,49.2,41.3,29.94,North,5,15.0,30.0,74,0.00,,,0.00,271,Wunderground v.1.15,2013-03-25 11:22:00,
2013-03-25 13:32:00,48.9,41.3,29.94,NNE,18,16.0,16.0,75,0.00,,,0.00,246,Wunderground v.1.15,2013-03-25 11:32:00,
2013-03-25 13:42:00,48.2,41.0,29.94,North,5,16.0,16.0,76,0.00,,,0.00,223,Wunderground v.1.15,2013-03-25 11:42:00,
2013-03-25 13:52:00,48.2,41.3,29.93,NNE,26,15.0,15.0,77,0.00,,,0.00,183,Wunderground v.1.15,2013-03-25 11:52:00,
2013-03-25 14:02:00,47.9,41.0,29.93,North,360,14.0,14.0,77,0.00,,,0.00,153,Wunderground v.1.15,2013-03-25 12:02:00,
2013-03-25 14:12:00,47.8,41.3,29.92,North,360,13.0,13.0,78,0.00,,,0.00,149,Wunderground v.1.15,2013-03-25 12:12:00,
2013-03-25 14:22:00,47.6,41.1,29.92,NNW,348,14.0,14.0,78,0.00,,,0.00,172,Wunderground v.1.15,2013-03-25 12:22:00,
2013-03-25 14:32:00,47.8,41.6,29.91,East,82,9.0,9.0,79,0.00,,,0.00,243,Wunderground v.1.15,2013-03-25 12:32:00,
2013-03-25 14:42:00,47.8,41.3,29.90,North,9,10.0,15.0,78,0.00,,,0.00,239,Wunderground v.1.15,2013-03-25 12:42:00,
2013-03-25 14:52:00,47.3,40.5,29.90,NNE,15,14.0,14.0,77,0.00,,,0.00,193,Wunderground v.1.15,2013-03-25 12:52:00,
2013-03-25 15:02:00,47.3,40.8,29.88,NNE,21,14.0,14.0,78,0.00,,,0.00,199,Wunderground v.1.15,2013-03-25 13:02:00,
2013-03-25 15:12:00,47.3,41.1,29.88,NE,44,12.0,15.0,79,0.00,,,0.00,348,Wunderground v.1.15,2013-03-25 13:12:00,
2013-03-25 15:22:00,47.6,41.1,29.88,North,5,15.0,15.0,78,0.00,,,0.00,272,Wunderground v.1.15,2013-03-25 13:22:00,
2013-03-25 15:32:00,47.6,41.1,29.87,NNE,16,13.0,25.0,78,0.00,,,0.00,229,Wunderground v.1.15,2013-03-25 13:32:00,
2013-03-25 15:42:00,47.1,40.9,29.87,North,10,16.0,20.0,79,0.00,,,0.00,241,Wunderground v.1.15,2013-03-25 13:42:00,
2013-03-25 15:52:00,47.0,40.8,29.87,NNE,13,15.0,19.0,79,0.00,,,0.00,302,Wunderground v.1.15,2013-03-25 13:52:00,
2013-03-25 16:02:00,47.7,41.5,29.87,NNE,30,13.0,13.0,79,0.00,,,0.00,195,Wunderground v.1.15,2013-03-25 14:02:00,
2013-03-25 16:22:00,46.8,41.0,29.87,NNE,30,15.0,15.0,80,0.00,,,0.00,149,Wunderground v.1.15,2013-03-25 14:22:00,
2013-03-25 16:32:00,46.5,41.0,29.87,NNE,19,15.0,15.0,81,0.00,,,0.00,132,Wunderground v.1.15,2013-03-25 14:32:00,
2013-03-25 16:52:00,46.4,40.9,29.88,NNW,344,12.0,12.0,81,0.00,,,0.00,120,Wunderground v.1.15,2013-03-25 14:52:00,
2013-03-25 17:02:00,46.5,41.0,29.88,NE,51,10.0,10.0,81,0.00,,,0.00,86,Wunderground v.1.15,2013-03-25 15:02:00,
2013-03-25 17:12:00,46.6,42.0,29.87,NNE,24,12.0,14.0,84,0.00,,,0.00,69,Wunderground v.1.15,2013-03-25 15:12:00,
2013-03-25 17:22:00,45.9,41.0,29.86,North,355,13.0,13.0,83,0.00,,,0.00,47,Wunderground v.1.15,2013-03-25 15:22:00,
2013-03-25 17:42:00,45.7,41.1,29.85,NNE,32,8.0,8.0,84,0.00,,,0.00,19,Wunderground v.1.15,2013-03-25 15:42:00,
2013-03-25 17:52:00,45.8,40.9,29.84,North,355,10.0,10.0,83,0.00,,,0.00,12,Wunderground v.1.15,2013-03-25 15:52:00,
2013-03-25 18:02:00,45.5,40.6,29.83,NNE,32,12.0,18.0,83,0.00,,,0.00,7,Wunderground v.1.15,2013-03-25 16:02:00,
2013-03-25 18:12:00,45.3,40.7,29.81,NE,34,10.0,11.0,84,0.00,,,0.00,0,Wunderground v.1.15,2013-03-25 16:12:00,
2013-03-25 18:32:00,45.3,41.1,29.81,NNE,13,7.0,15.0,85,0.00,,,0.00,0,Wunderground v.1.15,2013-03-25 16:32:00,
2013-03-25 18:42:00,45.4,40.8,29.81,North,5,9.0,12.0,84,0.00,,,0.00,0,Wunderground v.1.15,2013-03-25 16:42:00,
2013-03-25 18:52:00,45.7,41.1,29.82,NNE,32,8.0,9.0,84,0.00,,,0.00,0,Wunderground v.1.15,2013-03-25 16:52:00,
2013-03-25 19:02:00,45.5,40.6,29.82,NNE,17,8.0,9.0,83,0.00,,,0.00,0,Wunderground v.1.15,2013-03-25 17:02:00,
2013-03-25 19:12:00,45.7,40.8,29.83,NNE,18,7.0,7.0,83,0.00,,,0.00,0,Wunderground v.1.15,2013-03-25 17:12:00,
2013-03-25 19:22:00,45.8,40.9,29.83,North,11,6.0,6.0,83,0.00,,,0.00,0,Wunderground v.1.15,2013-03-25 17:22:00,
2013-03-25 19:32:00,45.6,40.7,29.83,North,355,8.0,8.0,83,0.00,,,0.00,0,Wunderground v.1.15,2013-03-25 17:32:00,
2013-03-25 19:42:00,45.5,40.9,29.82,NNW,344,8.0,13.0,84,0.00,,,0.00,0,Wunderground v.1.15,2013-03-25 17:42:00,
2013-03-25 19:52:00,45.4,40.8,29.82,North,9,10.0,11.0,84,0.00,,,0.00,0,Wunderground v.1.15,2013-03-25 17:52:00,
2013-03-25 20:02:00,45.2,41.0,29.82,North,360,10.0,13.0,85,0.00,,,0.00,0,Wunderground v.1.15,2013-03-25 18:02:00,
2013-03-25 20:32:00,45.1,41.2,29.80,NNE,22,9.0,11.0,86,0.00,,,0.00,0,Wunderground v.1.15,2013-03-25 18:32:00,
2013-03-25 20:42:00,44.9,41.0,29.79,North,5,12.0,13.0,86,0.00,,,0.00,0,Wunderground v.1.15,2013-03-25 18:42:00,
2013-03-25 20:52:00,44.7,41.1,29.79,NNE,23,12.0,16.0,87,0.00,,,0.00,0,Wunderground v.1.15,2013-03-25 18:52:00,
2013-03-25 21:12:00,44.9,41.3,29.80,NNE,19,8.0,9.0,87,0.00,,,0.00,0,Wunderground v.1.15,2013-03-25 19:12:00,
2013-03-25 21:22:00,45.0,41.4,29.80,NE,42,7.0,7.0,87,0.00,,,0.00,0,Wunderground v.1.15,2013-03-25 19:22:00,
2013-03-25 21:42:00,44.9,41.3,29.78,NE,44,10.0,10.0,87,0.00,,,0.00,0,Wunderground v.1.15,2013-03-25 19:42:00,
2013-03-25 21:52:00,44.8,41.5,29.79,NNE,22,9.0,9.0,88,0.00,,,0.00,0,Wunderground v.1.15,2013-03-25 19:52:00,
2013-03-25 22:12:00,44.9,41.6,29.77,NNE,24,13.0,13.0,88,0.00,,,0.00,0,Wunderground v.1.15,2013-03-25 20:12:00,
2013-03-25 22:22:00,45.0,41.7,29.76,NNE,27,10.0,10.0,88,0.00,,,0.00,0,Wunderground v.1.15,2013-03-25 20:22:00,
2013-03-25 22:32:00,44.9,41.6,29.75,NE,36,14.0,14.0,88,0.00,,,0.00,0,Wunderground v.1.15,2013-03-25 20:32:00,
2013-03-25 22:42:00,44.8,41.8,29.74,NW,319,13.0,14.0,89,0.00,,,0.00,0,Wunderground v.1.15,2013-03-25 20:42:00,
2013-03-25 22:52:00,44.6,41.6,29.73,NNE,13,12.0,15.0,89,0.00,,,0.00,0,Wunderground v.1.15,2013-03-25 20:52:00,
2013-03-25 23:02:00,44.7,41.7,29.74,NE,39,11.0,11.0,89,0.00,,,0.00,0,Wunderground v.1.15,2013-03-25 21:02:00,
2013-03-25 23:22:00,44.9,41.9,29.72,NNE,15,8.0,10.0,89,0.00,,,0.00,0,Wunderground v.1.15,2013-03-25 21:22:00,
2013-03-25 23:52:00,45.2,41.9,29.71,NNW,330,7.0,8.0,88,0.00,,,0.00,0,Wunderground v.1.15,2013-03-25 21:52:00,